createdAt,value
2022-12-19T00:01:16.398Z,70.51
2022-12-19T00:03:43.858Z,70.05
2022-12-19T00:06:10.330Z,69.30
2022-12-19T00:08:36.806Z,69.20
2022-12-19T00:11:03.342Z,68.99
2022-12-19T00:13:31.781Z,69.58
2022-12-19T00:16:04.240Z,69.41
2022-12-19T00:18:30.770Z,69.39
2022-12-19T00:21:00.845Z,69.44
2022-12-19T00:23:27.832Z,69.71
2022-12-19T00:25:54.329Z,69.35
2022-12-19T00:28:21.955Z,69.86
2022-12-19T00:30:48.593Z,70.26
2022-12-19T00:33:15.096Z,70.46
2022-12-19T00:35:41.575Z,69.71
2022-12-19T00:38:10.431Z,69.46
2022-12-19T00:40:36.894Z,69.78
2022-12-19T00:43:03.430Z,69.30
2022-12-19T00:45:29.978Z,69.39
2022-12-19T00:47:57.005Z,69.73
2022-12-19T00:50:23.653Z,70.13
2022-12-19T00:52:50.217Z,70.04
2022-12-19T00:55:19.499Z,69.46
2022-12-19T00:57:46.602Z,69.47
2022-12-19T01:00:13.391Z,68.99
2022-12-19T01:02:40.089Z,69.20
2022-12-19T01:05:06.813Z,68.84
2022-12-19T01:07:33.305Z,68.35
2022-12-19T01:10:00.587Z,69.17
2022-12-19T01:12:46.408Z,69.68
2022-12-19T01:15:14.333Z,69.65
2022-12-19T01:17:44.720Z,68.76
2022-12-19T01:20:12.375Z,69.20
2022-12-19T01:22:38.873Z,69.65
2022-12-19T01:25:05.733Z,70.06
2022-12-19T01:27:32.264Z,69.13
2022-12-19T01:29:58.813Z,69.44
2022-12-19T01:32:25.373Z,68.79
2022-12-19T01:34:51.895Z,68.44
2022-12-19T01:37:18.623Z,68.66
2022-12-19T01:39:46.085Z,68.69
2022-12-19T01:42:19.540Z,68.18
2022-12-19T01:45:08.186Z,68.07
2022-12-19T01:47:43.649Z,68.22
2022-12-19T01:50:12.467Z,69.09
2022-12-19T01:52:38.981Z,69.13
2022-12-19T01:55:05.684Z,68.90
2022-12-19T01:57:32.142Z,69.80
2022-12-19T02:00:01.023Z,69.42
2022-12-19T02:02:34.434Z,69.76
2022-12-19T02:05:03.941Z,69.66
2022-12-19T02:07:30.460Z,69.16
2022-12-19T02:09:58.126Z,68.79
2022-12-19T02:12:34.187Z,68.41
2022-12-19T02:15:02.958Z,68.77
2022-12-19T02:17:35.059Z,68.86
2022-12-19T02:20:10.928Z,68.38
2022-12-19T02:22:40.648Z,68.52
2022-12-19T02:25:26.150Z,68.25
2022-12-19T02:28:01.864Z,68.33
2022-12-19T02:30:35.977Z,68.48
2022-12-19T02:33:22.989Z,68.44
2022-12-19T02:36:08.617Z,68.57
2022-12-19T02:38:41.758Z,68.53
2022-12-19T02:41:10.143Z,68.43
2022-12-19T02:43:39.199Z,69.01
2022-12-19T02:46:06.404Z,69.13
2022-12-19T02:48:34.883Z,69.30
2022-12-19T02:51:03.731Z,69.22
2022-12-19T02:53:32.001Z,69.24
2022-12-19T02:56:05.588Z,69.44
2022-12-19T02:58:41.645Z,70.24
2022-12-19T03:01:15.024Z,69.64
2022-12-19T03:03:46.969Z,69.40
2022-12-19T03:06:20.679Z,69.97
2022-12-19T03:08:47.744Z,70.02
2022-12-19T03:11:14.912Z,70.39
2022-12-19T03:13:56.804Z,70.92
2022-12-19T03:16:23.732Z,70.56
2022-12-19T03:18:50.426Z,70.56
2022-12-19T03:21:29.859Z,70.52
2022-12-19T03:23:56.639Z,70.62
2022-12-19T03:26:24.256Z,70.21
2022-12-19T03:28:58.793Z,70.30
2022-12-19T03:31:26.810Z,70.47
2022-12-19T03:34:06.732Z,70.58
2022-12-19T03:36:36.370Z,70.30
2022-12-19T03:39:03.397Z,70.62
2022-12-19T03:41:48.853Z,70.11
2022-12-19T03:44:15.621Z,70.48
2022-12-19T03:46:43.464Z,70.69
2022-12-19T03:49:10.072Z,70.56
2022-12-19T03:51:47.530Z,70.88
2022-12-19T03:54:18.478Z,71.05
2022-12-19T03:56:53.132Z,70.54
2022-12-19T03:59:32.206Z,70.47
2022-12-19T04:01:58.796Z,70.46
2022-12-19T04:04:25.892Z,70.51
2022-12-19T04:06:52.477Z,70.38
2022-12-19T04:09:22.410Z,70.74
2022-12-19T04:11:50.779Z,70.50
2022-12-19T04:14:18.578Z,70.61
2022-12-19T04:16:46.733Z,70.69
2022-12-19T04:19:29.744Z,71.02
2022-12-19T04:21:57.760Z,71.03
2022-12-19T04:24:26.084Z,71.47
2022-12-19T04:26:52.761Z,71.33
2022-12-19T04:29:19.348Z,71.54
2022-12-19T04:31:45.994Z,72.07
2022-12-19T04:34:12.612Z,72.26
2022-12-19T04:36:39.158Z,72.15
2022-12-19T04:39:05.970Z,72.34
2022-12-19T04:41:32.450Z,72.72
2022-12-19T04:43:58.971Z,72.53
2022-12-19T04:46:25.511Z,72.59
2022-12-19T04:48:52.078Z,72.49
2022-12-19T04:51:18.558Z,72.08
2022-12-19T04:53:45.195Z,72.76
2022-12-19T04:56:11.848Z,72.59
2022-12-19T04:58:38.393Z,72.31
2022-12-19T05:01:05.756Z,72.18
2022-12-19T05:03:32.696Z,72.31
2022-12-19T05:06:12.228Z,72.36
2022-12-19T05:08:39.547Z,72.47
2022-12-19T05:11:06.617Z,72.72
2022-12-19T05:13:33.124Z,73.16
2022-12-19T05:16:00.296Z,72.88
2022-12-19T05:18:26.845Z,72.72
2022-12-19T05:20:53.532Z,72.81
2022-12-19T05:23:20.219Z,72.59
2022-12-19T05:25:46.717Z,72.82
2022-12-19T05:28:13.795Z,72.61
2022-12-19T05:30:40.354Z,72.97
2022-12-19T05:33:06.907Z,72.82
2022-12-19T05:35:33.780Z,72.37
2022-12-19T05:38:00.527Z,72.44
2022-12-19T05:40:27.163Z,72.88
2022-12-19T05:42:53.667Z,72.72
2022-12-19T05:45:20.165Z,72.45
2022-12-19T05:47:46.811Z,72.32
2022-12-19T05:50:13.985Z,72.97
2022-12-19T05:52:40.687Z,73.01
2022-12-19T05:55:07.757Z,72.87
2022-12-19T05:57:38.014Z,72.70
2022-12-19T06:00:05.052Z,73.00
2022-12-19T06:02:38.991Z,72.93
2022-12-19T06:05:05.837Z,72.77
2022-12-19T06:07:32.360Z,72.77
2022-12-19T06:09:59.962Z,72.48
2022-12-19T06:12:26.613Z,72.20
2022-12-19T06:14:53.126Z,72.16
2022-12-19T06:17:19.659Z,72.51
2022-12-19T06:19:46.341Z,72.30
2022-12-19T06:22:12.862Z,72.11
2022-12-19T06:24:39.352Z,72.40
2022-12-19T06:27:05.887Z,72.38
2022-12-19T06:29:32.371Z,72.05
2022-12-19T06:31:58.986Z,71.97
2022-12-19T06:34:55.217Z,71.94
2022-12-19T06:37:12.621Z,71.92
2022-12-19T06:39:39.105Z,71.66
2022-12-19T06:42:24.127Z,71.38
2022-12-19T06:44:56.022Z,71.38
2022-12-19T06:47:23.195Z,72.11
2022-12-19T06:49:50.270Z,72.01
2022-12-19T06:52:16.953Z,71.97
2022-12-19T06:54:43.466Z,72.20
2022-12-19T06:57:09.993Z,72.61
2022-12-19T06:59:36.523Z,72.15
2022-12-19T07:02:06.552Z,72.04
2022-12-19T07:04:34.358Z,72.03
2022-12-19T07:07:01.059Z,72.01
2022-12-19T07:09:28.040Z,72.27
2022-12-19T07:11:54.566Z,72.42
2022-12-19T07:14:21.075Z,72.96
2022-12-19T07:16:47.648Z,72.72
2022-12-19T07:19:14.241Z,72.68
2022-12-19T07:21:40.735Z,73.15
2022-12-19T07:24:07.634Z,73.53
2022-12-19T07:26:35.937Z,73.97
2022-12-19T07:29:03.000Z,73.85
2022-12-19T07:31:29.497Z,73.68
2022-12-19T07:33:56.055Z,73.36
2022-12-19T07:36:22.533Z,73.52
2022-12-19T07:38:49.879Z,73.82
2022-12-19T07:41:16.734Z,73.45
2022-12-19T07:43:43.255Z,73.24
2022-12-19T07:46:09.870Z,73.28
2022-12-19T07:48:36.430Z,73.40
2022-12-19T07:51:05.424Z,72.94
2022-12-19T07:53:32.063Z,72.19
2022-12-19T07:55:58.557Z,72.58
2022-12-19T07:58:25.068Z,72.80
2022-12-19T08:00:57.787Z,72.70
2022-12-19T08:03:24.619Z,72.57
2022-12-19T08:05:51.199Z,72.30
2022-12-19T08:08:17.765Z,72.33
2022-12-19T08:10:44.282Z,72.32
2022-12-19T08:13:10.779Z,72.10
2022-12-19T08:15:37.252Z,72.17
2022-12-19T08:18:04.213Z,72.32
2022-12-19T08:20:30.703Z,72.02
2022-12-19T08:22:57.202Z,72.41
2022-12-19T08:25:23.684Z,72.27
2022-12-19T08:27:50.209Z,71.94
2022-12-19T08:30:16.744Z,72.01
2022-12-19T08:32:44.940Z,71.77
2022-12-19T08:35:11.613Z,71.88
2022-12-19T08:37:38.750Z,72.14
2022-12-19T08:40:05.468Z,71.74
2022-12-19T08:42:33.613Z,72.05
2022-12-19T08:45:00.191Z,71.90
2022-12-19T08:47:26.791Z,71.59
2022-12-19T08:49:53.304Z,71.64
2022-12-19T08:52:19.771Z,70.90
2022-12-19T08:54:46.239Z,70.94
2022-12-19T08:57:12.883Z,70.38
2022-12-19T08:59:39.615Z,70.45
2022-12-19T09:02:07.428Z,70.38
2022-12-19T09:05:59.913Z,70.78
2022-12-19T09:07:20.458Z,70.41
2022-12-19T09:09:46.974Z,70.38
2022-12-19T09:12:13.780Z,71.04
2022-12-19T09:14:40.254Z,71.16
2022-12-19T09:17:06.851Z,71.45
2022-12-19T09:19:33.488Z,70.93
2022-12-19T09:22:00.027Z,70.78
2022-12-19T09:24:26.518Z,70.61
2022-12-19T09:26:53.139Z,70.69
2022-12-19T09:29:21.739Z,70.55
2022-12-19T09:31:53.885Z,70.24
2022-12-19T09:34:36.809Z,70.18
2022-12-19T09:37:08.762Z,69.97
2022-12-19T09:39:36.256Z,70.05
2022-12-19T09:42:14.876Z,71.09
2022-12-19T09:44:47.117Z,71.54
2022-12-19T09:47:14.734Z,71.29
2022-12-19T09:49:43.428Z,70.90
2022-12-19T09:52:21.286Z,70.62
2022-12-19T09:55:06.518Z,70.46
2022-12-19T09:57:36.502Z,70.17
2022-12-19T10:00:05.247Z,69.99
2022-12-19T10:02:47.680Z,69.95
2022-12-19T10:05:32.997Z,69.62
2022-12-19T10:08:09.727Z,68.89
2022-12-19T10:12:47.330Z,68.74
2022-12-19T10:13:53.957Z,68.43
2022-12-19T10:16:40.755Z,68.35
2022-12-19T10:19:08.370Z,68.79
2022-12-19T10:22:18.371Z,68.77
2022-12-19T10:25:08.796Z,68.54
2022-12-19T10:27:59.446Z,69.44
2022-12-19T10:30:29.088Z,69.26
2022-12-19T10:33:13.593Z,69.15
2022-12-19T10:35:49.408Z,68.73
2022-12-19T10:38:36.709Z,68.16
2022-12-19T10:41:11.878Z,68.27
2022-12-19T10:43:47.413Z,67.75
2022-12-19T10:46:17.299Z,67.83
2022-12-19T10:48:43.847Z,67.55
2022-12-19T10:51:14.042Z,67.06
2022-12-19T10:53:40.594Z,66.50
2022-12-19T10:56:18.852Z,66.73
2022-12-19T10:58:45.767Z,67.17
2022-12-19T11:01:13.728Z,67.33
2022-12-19T11:03:41.958Z,67.58
2022-12-19T11:06:29.344Z,67.68
2022-12-19T11:08:58.421Z,67.54
2022-12-19T11:13:32.271Z,67.58
2022-12-19T11:18:41.522Z,67.46
2022-12-19T11:23:20.795Z,66.90
2022-12-19T11:23:42.767Z,67.11
2022-12-19T11:29:27.404Z,67.00
2022-12-19T11:29:31.094Z,66.73
2022-12-19T11:29:33.110Z,66.66
2022-12-19T11:34:31.508Z,66.74
2022-12-19T11:37:16.846Z,66.53
2022-12-19T11:39:48.485Z,66.83
2022-12-19T11:42:23.255Z,66.59
2022-12-19T11:45:09.996Z,66.73
2022-12-19T11:47:44.431Z,67.41
2022-12-19T11:50:13.951Z,66.88
2022-12-19T11:53:09.437Z,66.43
2022-12-19T11:55:51.341Z,65.81
2022-12-19T11:58:17.831Z,65.64
2022-12-19T12:00:47.004Z,65.09
2022-12-19T12:03:30.537Z,64.70
2022-12-19T12:05:58.537Z,64.47
2022-12-19T12:10:07.612Z,64.29
2022-12-19T12:17:58.454Z,64.61
2022-12-19T12:23:46.667Z,64.24
2022-12-19T12:30:41.674Z,64.44
2022-12-19T12:31:08.219Z,64.56
2022-12-19T12:31:26.255Z,64.72
2022-12-19T12:31:39.615Z,64.58
2022-12-19T12:32:00.979Z,64.58
2022-12-19T12:35:32.826Z,64.56
2022-12-19T12:40:24.243Z,64.68
2022-12-19T12:42:53.570Z,64.55
2022-12-19T12:45:22.330Z,64.60
2022-12-19T12:47:49.946Z,64.75
2022-12-19T12:50:17.355Z,64.28
2022-12-19T12:52:45.886Z,64.57
2022-12-19T12:55:14.904Z,64.56
2022-12-19T12:57:44.382Z,64.75
2022-12-19T13:00:22.753Z,64.85
2022-12-19T13:03:01.365Z,64.80
2022-12-19T13:05:51.921Z,65.29
2022-12-19T13:08:25.221Z,65.36
2022-12-19T13:10:57.823Z,65.60
2022-12-19T13:13:43.321Z,65.45
2022-12-19T13:16:28.460Z,65.23
2022-12-19T13:19:27.826Z,65.44
2022-12-19T13:22:04.893Z,65.35
2022-12-19T13:24:41.074Z,64.97
2022-12-19T13:27:43.569Z,65.60
2022-12-19T13:30:14.809Z,65.71
2022-12-19T13:32:41.278Z,65.74
2022-12-19T13:36:05.195Z,66.24
2022-12-19T13:39:57.478Z,66.95
2022-12-19T13:41:00.487Z,66.83
2022-12-19T13:43:47.749Z,67.41
2022-12-19T13:46:29.647Z,67.50
2022-12-19T13:49:03.230Z,67.95
2022-12-19T13:51:40.168Z,68.02
2022-12-19T13:54:15.067Z,68.14
2022-12-19T13:56:41.585Z,68.37
2022-12-19T13:59:09.425Z,67.99
2022-12-19T14:01:36.346Z,68.39
2022-12-19T14:04:08.777Z,68.36
2022-12-19T14:06:40.013Z,68.79
2022-12-19T14:09:41.506Z,69.03
2022-12-19T14:13:43.131Z,69.24
2022-12-19T14:15:14.089Z,69.56
2022-12-19T14:17:40.958Z,69.24
2022-12-19T14:22:03.625Z,69.33
2022-12-19T14:23:42.870Z,69.27
2022-12-19T14:28:18.524Z,70.13
2022-12-19T14:30:26.538Z,70.46
2022-12-19T14:33:44.503Z,70.71
2022-12-19T14:36:07.173Z,70.90
2022-12-19T14:39:21.976Z,71.06
2022-12-19T14:41:07.823Z,71.89
2022-12-19T14:43:58.959Z,71.54
2022-12-19T14:53:51.853Z,71.90
2022-12-19T14:54:14.415Z,71.48
2022-12-19T14:54:22.848Z,70.55
2022-12-19T14:56:09.323Z,70.52
2022-12-19T14:58:56.130Z,71.95
2022-12-19T15:01:09.001Z,71.64
2022-12-19T15:03:39.779Z,71.83
2022-12-19T15:07:05.382Z,71.43
2022-12-19T15:10:59.733Z,71.10
2022-12-19T15:14:48.756Z,71.89
2022-12-19T15:15:02.268Z,71.48
2022-12-19T15:17:28.884Z,71.71
2022-12-19T15:19:58.585Z,72.29
2022-12-19T15:22:25.133Z,71.68
2022-12-19T15:24:52.005Z,72.01
2022-12-19T15:27:18.834Z,72.53
2022-12-19T15:29:45.493Z,72.77
2022-12-19T15:32:16.012Z,72.05
2022-12-19T15:35:01.043Z,71.82
2022-12-19T15:37:35.384Z,71.48
2022-12-19T15:40:02.250Z,71.79
2022-12-19T15:42:28.816Z,72.64
2022-12-19T15:44:59.931Z,73.04
2022-12-19T15:47:33.518Z,73.14
2022-12-19T15:50:02.796Z,73.47
2022-12-19T15:52:29.651Z,72.91
2022-12-19T15:54:58.732Z,72.99
2022-12-19T15:57:29.883Z,73.69
2022-12-19T15:59:56.756Z,73.68
2022-12-19T16:02:42.783Z,73.47
2022-12-19T16:05:13.895Z,73.36
2022-12-19T16:07:40.525Z,73.08
2022-12-19T16:10:07.398Z,73.25
2022-12-19T16:12:35.583Z,73.58
2022-12-19T16:15:02.580Z,73.24
2022-12-19T16:17:29.430Z,73.07
2022-12-19T16:19:55.975Z,73.33
2022-12-19T16:22:23.443Z,73.18
2022-12-19T16:24:53.375Z,73.56
2022-12-19T16:27:22.275Z,73.98
2022-12-19T16:29:48.777Z,73.97
2022-12-19T16:32:15.545Z,73.72
2022-12-19T16:34:42.168Z,73.57
2022-12-19T16:37:08.764Z,74.33
2022-12-19T16:39:35.411Z,75.13
2022-12-19T16:42:03.188Z,74.77
2022-12-19T16:44:30.402Z,74.26
2022-12-19T16:46:56.885Z,74.73
2022-12-19T16:49:23.590Z,73.86
2022-12-19T16:51:50.717Z,73.86
2022-12-19T16:54:17.649Z,73.63
2022-12-19T16:56:46.128Z,74.60
2022-12-19T16:59:20.313Z,74.82
2022-12-19T17:01:47.268Z,75.45
2022-12-19T17:04:17.952Z,75.32
2022-12-19T17:06:44.547Z,75.64
2022-12-19T17:09:17.989Z,74.83
2022-12-19T17:11:45.711Z,74.54
2022-12-19T17:14:16.851Z,74.36
2022-12-19T17:16:43.478Z,74.31
2022-12-19T17:19:43.182Z,74.52
2022-12-19T17:22:11.481Z,74.96
2022-12-19T17:24:38.131Z,75.34
2022-12-19T17:27:04.735Z,75.57
2022-12-19T17:29:31.886Z,75.20
2022-12-19T17:31:58.437Z,74.40
2022-12-19T17:34:34.343Z,74.31
2022-12-19T17:37:01.426Z,74.31
2022-12-19T17:39:29.177Z,74.82
2022-12-19T17:41:56.463Z,75.00
2022-12-19T17:44:23.122Z,73.79
2022-12-19T17:46:49.664Z,73.45
2022-12-19T17:49:17.012Z,74.28
2022-12-19T17:51:45.509Z,74.78
2022-12-19T17:54:12.453Z,74.42
2022-12-19T17:56:38.935Z,75.00
2022-12-19T17:59:05.539Z,75.21
2022-12-19T18:01:32.212Z,75.18
2022-12-19T18:03:59.079Z,76.06
2022-12-19T18:06:25.635Z,75.02
2022-12-19T18:08:52.142Z,75.10
2022-12-19T18:11:19.539Z,75.01
2022-12-19T18:13:46.122Z,75.58
2022-12-19T18:16:13.458Z,75.76
2022-12-19T18:18:39.977Z,75.65
2022-12-19T18:21:06.771Z,75.87
2022-12-19T18:23:33.524Z,76.53
2022-12-19T18:26:02.371Z,76.38
2022-12-19T18:28:29.418Z,75.92
2022-12-19T18:30:58.577Z,75.62
2022-12-19T18:33:25.160Z,75.82
2022-12-19T18:35:51.644Z,75.19
2022-12-19T18:38:19.423Z,74.99
2022-12-19T18:40:46.143Z,75.06
2022-12-19T18:43:14.051Z,74.78
2022-12-19T18:45:41.709Z,74.76
2022-12-19T18:48:11.840Z,74.32
2022-12-19T18:50:38.416Z,74.64
2022-12-19T18:53:11.968Z,74.69
2022-12-19T18:55:38.449Z,75.12
2022-12-19T18:58:05.140Z,75.42
2022-12-19T19:00:31.609Z,75.78
2022-12-19T19:03:04.908Z,75.53
2022-12-19T19:05:32.508Z,75.40
2022-12-19T19:08:09.924Z,75.62
2022-12-19T19:10:36.424Z,75.77
2022-12-19T19:13:10.406Z,75.51
2022-12-19T19:15:38.272Z,75.89
2022-12-19T19:18:05.510Z,75.30
2022-12-19T19:20:34.124Z,74.85
2022-12-19T19:23:00.686Z,75.19
2022-12-19T19:25:27.175Z,75.72
2022-12-19T19:27:53.729Z,75.62
2022-12-19T19:30:20.215Z,75.48
2022-12-19T19:32:48.708Z,75.99
2022-12-19T19:35:16.150Z,75.64
2022-12-19T19:37:44.767Z,75.29
2022-12-19T19:40:12.125Z,75.29
2022-12-19T19:42:38.821Z,75.20
2022-12-19T19:45:05.934Z,75.72
2022-12-19T19:47:36.081Z,75.92
2022-12-19T19:50:02.884Z,76.18
2022-12-19T19:52:29.353Z,76.27
2022-12-19T19:54:55.845Z,76.11
2022-12-19T19:57:22.324Z,75.70
2022-12-19T19:59:48.855Z,76.00
2022-12-19T20:02:16.818Z,75.80
2022-12-19T20:04:43.691Z,75.88
2022-12-19T20:07:10.233Z,76.04
2022-12-19T20:09:36.739Z,75.53
2022-12-19T20:12:03.482Z,75.35
2022-12-19T20:14:29.965Z,76.01
2022-12-19T20:16:56.523Z,75.77
2022-12-19T20:19:23.072Z,75.28
2022-12-19T20:21:49.583Z,75.43
2022-12-19T20:24:16.094Z,76.09
2022-12-19T20:26:42.832Z,75.71
2022-12-19T20:29:11.504Z,75.57
2022-12-19T20:31:39.222Z,75.20
2022-12-19T20:34:05.742Z,75.17
2022-12-19T20:36:32.513Z,75.20
2022-12-19T20:39:02.205Z,75.17
2022-12-19T20:41:28.727Z,75.54
2022-12-19T20:43:55.457Z,75.43
2022-12-19T20:46:22.328Z,75.40
2022-12-19T20:48:49.221Z,75.00
2022-12-19T20:51:16.138Z,75.40
2022-12-19T20:53:42.855Z,74.86
2022-12-19T20:56:10.953Z,75.23
2022-12-19T20:58:37.847Z,75.11
2022-12-19T21:01:04.390Z,74.65
2022-12-19T21:03:31.116Z,74.26
2022-12-19T21:05:58.034Z,74.74
2022-12-19T21:08:24.898Z,75.65
2022-12-19T21:10:51.511Z,75.14
2022-12-19T21:13:18.031Z,75.02
2022-12-19T21:15:44.809Z,74.54
2022-12-19T21:18:11.364Z,74.99
2022-12-19T21:20:39.200Z,74.35
2022-12-19T21:23:05.952Z,74.63
2022-12-19T21:25:32.540Z,74.78
2022-12-19T21:27:59.076Z,74.78
2022-12-19T21:30:25.580Z,74.07
2022-12-19T21:32:52.224Z,73.92
2022-12-19T21:35:18.842Z,73.94
2022-12-19T21:37:51.904Z,74.46
2022-12-19T21:40:18.784Z,74.49
2022-12-19T21:42:45.405Z,74.58
2022-12-19T21:45:12.422Z,74.87
2022-12-19T21:47:40.134Z,75.50
2022-12-19T21:50:09.093Z,75.99
2022-12-19T21:52:46.314Z,76.01
2022-12-19T21:55:19.503Z,75.88
2022-12-19T21:57:46.110Z,76.06
2022-12-19T22:00:13.047Z,75.68
2022-12-19T22:02:41.363Z,75.60
2022-12-19T22:05:17.318Z,75.31
2022-12-19T22:07:43.814Z,75.09
2022-12-19T22:10:10.438Z,74.51
2022-12-19T22:12:37.014Z,73.48
2022-12-19T22:15:03.628Z,73.19
2022-12-19T22:17:30.126Z,74.13
2022-12-19T22:19:56.627Z,74.23
2022-12-19T22:22:24.524Z,74.85
2022-12-19T22:24:53.472Z,74.27
2022-12-19T22:27:19.980Z,75.48
2022-12-19T22:29:46.507Z,75.23
2022-12-19T22:32:13.056Z,74.53
2022-12-19T22:34:42.514Z,74.55
2022-12-19T22:37:09.157Z,74.38
2022-12-19T22:39:35.686Z,74.28
2022-12-19T22:42:02.400Z,75.22
2022-12-19T22:44:29.189Z,74.33
2022-12-19T22:46:56.137Z,74.35
2022-12-19T22:49:24.626Z,74.79
2022-12-19T22:51:53.347Z,75.72
2022-12-19T22:54:19.924Z,75.76
2022-12-19T22:56:46.540Z,74.94
2022-12-19T22:59:13.252Z,75.17
2022-12-19T23:01:40.887Z,75.58
2022-12-19T23:04:08.197Z,74.93
2022-12-19T23:06:35.539Z,75.43
2022-12-19T23:09:02.336Z,75.70
2022-12-19T23:11:30.804Z,75.28
2022-12-19T23:14:00.538Z,74.65
2022-12-19T23:16:27.209Z,74.43
2022-12-19T23:18:53.722Z,74.47
2022-12-19T23:21:21.213Z,74.32
2022-12-19T23:23:48.548Z,75.04
2022-12-19T23:26:19.245Z,75.68
2022-12-19T23:28:49.981Z,75.35
2022-12-19T23:31:16.673Z,75.78
2022-12-19T23:33:43.330Z,75.10
2022-12-19T23:36:10.846Z,75.02
2022-12-19T23:38:37.373Z,74.87
2022-12-19T23:41:07.316Z,74.86
2022-12-19T23:43:34.303Z,74.31
2022-12-19T23:46:05.186Z,74.08
2022-12-19T23:48:31.690Z,74.15
2022-12-19T23:51:01.860Z,74.33
2022-12-19T23:53:28.823Z,74.01
2022-12-19T23:55:55.450Z,75.16
2022-12-19T23:58:24.591Z,75.19
